createdAt,value
2023-03-17T00:01:25.835Z,100.00
2023-03-17T00:03:55.327Z,100.00
2023-03-17T00:06:27.954Z,100.00
2023-03-17T00:08:58.555Z,100.00
2023-03-17T00:11:28.826Z,100.00
2023-03-17T00:13:57.696Z,100.00
2023-03-17T00:16:27.413Z,100.00
2023-03-17T00:18:56.417Z,100.00
2023-03-17T00:21:28.729Z,100.00
2023-03-17T00:23:59.718Z,100.00
2023-03-17T00:26:28.636Z,100.00
2023-03-17T00:28:58.006Z,100.00
2023-03-17T00:31:27.930Z,100.00
2023-03-17T00:33:56.518Z,100.00
2023-03-17T00:36:26.171Z,100.00
2023-03-17T00:38:54.534Z,100.00
2023-03-17T00:41:24.476Z,100.00
2023-03-17T00:43:52.775Z,100.00
2023-03-17T00:46:24.898Z,100.00
2023-03-17T00:48:53.251Z,100.00
2023-03-17T00:51:22.045Z,100.00
2023-03-17T00:53:50.404Z,100.00
2023-03-17T00:56:21.238Z,100.00
2023-03-17T00:58:51.072Z,100.00
2023-03-17T01:01:20.377Z,100.00
2023-03-17T01:03:48.766Z,100.00
2023-03-17T01:06:17.899Z,100.00
2023-03-17T01:08:46.645Z,100.00
2023-03-17T01:11:18.968Z,100.00
2023-03-17T01:13:47.864Z,100.00
2023-03-17T01:16:18.147Z,100.00
2023-03-17T01:18:46.644Z,100.00
2023-03-17T01:21:15.520Z,100.00
2023-03-17T01:23:43.951Z,100.00
2023-03-17T01:26:12.836Z,100.00
2023-03-17T01:28:41.215Z,100.00
2023-03-17T01:31:09.721Z,100.00
2023-03-17T01:33:40.869Z,100.00
2023-03-17T01:36:10.590Z,100.00
2023-03-17T01:38:38.932Z,100.00
2023-03-17T01:41:07.379Z,100.00
2023-03-17T01:43:35.711Z,100.00
2023-03-17T01:46:29.426Z,100.00
2023-03-17T01:49:21.931Z,100.00
2023-03-17T01:52:04.137Z,100.00
2023-03-17T01:54:36.533Z,100.00
2023-03-17T01:57:11.248Z,100.00
2023-03-17T01:59:43.893Z,100.00
2023-03-17T02:02:14.867Z,100.00
2023-03-17T02:04:45.296Z,100.00
2023-03-17T02:07:13.757Z,100.00
2023-03-17T02:09:42.198Z,100.00
2023-03-17T02:12:12.059Z,100.00
2023-03-17T02:14:40.478Z,100.00
2023-03-17T02:17:09.306Z,100.00
2023-03-17T02:19:37.655Z,100.00
2023-03-17T02:22:08.382Z,100.00
2023-03-17T02:24:39.717Z,100.00
2023-03-17T02:27:13.063Z,100.00
2023-03-17T02:29:41.749Z,100.00
2023-03-17T02:32:11.434Z,100.00
2023-03-17T02:34:39.835Z,100.00
2023-03-17T02:37:10.633Z,100.00
2023-03-17T02:39:38.924Z,100.00
2023-03-17T02:42:08.199Z,100.00
2023-03-17T02:44:36.616Z,100.00
2023-03-17T02:47:04.960Z,100.00
2023-03-17T02:49:33.752Z,100.00
2023-03-17T02:52:02.806Z,100.00
2023-03-17T02:54:32.577Z,100.00
2023-03-17T02:57:01.339Z,100.00
2023-03-17T02:59:29.830Z,100.00
2023-03-17T03:01:58.077Z,100.00
2023-03-17T03:04:26.469Z,100.00
2023-03-17T03:06:55.290Z,100.00
2023-03-17T03:09:24.327Z,100.00
2023-03-17T03:11:54.134Z,100.00
2023-03-17T03:14:22.532Z,100.00
2023-03-17T03:16:51.128Z,100.00
2023-03-17T03:19:19.370Z,100.00
2023-03-17T03:21:47.811Z,100.00
2023-03-17T03:24:16.115Z,100.00
2023-03-17T03:26:44.359Z,100.00
2023-03-17T03:29:14.147Z,100.00
2023-03-17T03:31:42.618Z,100.00
2023-03-17T03:34:11.149Z,100.00
2023-03-17T03:36:39.554Z,100.00
2023-03-17T03:39:08.180Z,100.00
2023-03-17T03:41:37.434Z,100.00
2023-03-17T03:44:05.856Z,100.00
2023-03-17T03:46:38.042Z,100.00
2023-03-17T03:49:06.537Z,100.00
2023-03-17T03:51:34.845Z,100.00
2023-03-17T03:54:03.123Z,100.00
2023-03-17T03:56:31.516Z,100.00
2023-03-17T03:58:59.912Z,100.00
2023-03-17T04:01:28.473Z,100.00
2023-03-17T04:03:58.309Z,100.00
2023-03-17T04:06:26.633Z,100.00
2023-03-17T04:08:57.062Z,100.00
2023-03-17T04:11:26.549Z,100.00
2023-03-17T04:13:55.905Z,100.00
2023-03-17T04:16:24.396Z,100.00
2023-03-17T04:18:52.833Z,100.00
2023-03-17T04:21:22.485Z,100.00
2023-03-17T04:23:50.815Z,100.00
2023-03-17T04:26:19.335Z,100.00
2023-03-17T04:28:47.814Z,100.00
2023-03-17T04:31:16.406Z,100.00
2023-03-17T04:33:44.816Z,100.00
2023-03-17T04:36:19.448Z,100.00
2023-03-17T04:38:49.346Z,100.00
2023-03-17T04:41:17.654Z,99.68
2023-03-17T04:43:46.271Z,100.00
2023-03-17T04:46:16.569Z,100.00
2023-03-17T04:48:45.049Z,100.00
2023-03-17T04:51:13.424Z,99.64
2023-03-17T04:53:41.863Z,98.94
2023-03-17T04:56:11.909Z,98.89
2023-03-17T04:58:40.443Z,97.35
2023-03-17T05:01:08.953Z,95.46
2023-03-17T05:03:37.387Z,95.76
2023-03-17T05:06:07.215Z,94.42
2023-03-17T05:08:35.647Z,93.65
2023-03-17T05:11:03.964Z,93.35
2023-03-17T05:13:33.763Z,93.69
2023-03-17T05:16:02.482Z,93.95
2023-03-17T05:18:31.790Z,93.08
2023-03-17T05:21:00.059Z,91.89
2023-03-17T05:23:28.528Z,91.12
2023-03-17T05:25:56.991Z,90.36
2023-03-17T05:28:25.269Z,90.64
2023-03-17T05:30:55.426Z,89.42
2023-03-17T05:33:23.812Z,88.98
2023-03-17T05:35:54.198Z,89.36
2023-03-17T05:38:22.576Z,88.97
2023-03-17T05:40:52.226Z,88.13
2023-03-17T05:43:20.718Z,86.90
2023-03-17T05:45:50.828Z,87.98
2023-03-17T05:48:20.561Z,86.56
2023-03-17T05:50:49.377Z,87.18
2023-03-17T05:53:17.816Z,86.73
2023-03-17T05:55:46.314Z,86.10
2023-03-17T05:58:15.837Z,85.62
2023-03-17T06:00:44.358Z,84.05
2023-03-17T06:03:12.759Z,84.05
2023-03-17T06:05:42.570Z,82.13
2023-03-17T06:08:11.081Z,82.82
2023-03-17T06:10:39.325Z,83.03
2023-03-17T06:13:07.607Z,82.42
2023-03-17T06:15:37.141Z,83.35
2023-03-17T06:18:06.394Z,82.03
2023-03-17T06:20:35.143Z,80.93
2023-03-17T06:23:06.078Z,81.20
2023-03-17T06:25:35.077Z,81.66
2023-03-17T06:28:04.072Z,81.65
2023-03-17T06:30:33.177Z,80.79
2023-03-17T06:33:02.231Z,80.60
2023-03-17T06:35:31.397Z,79.04
2023-03-17T06:38:00.007Z,79.02
2023-03-17T06:40:30.138Z,78.58
2023-03-17T06:42:58.470Z,78.95
2023-03-17T06:45:27.095Z,77.92
2023-03-17T06:47:55.452Z,77.63
2023-03-17T06:50:23.783Z,78.13
2023-03-17T06:52:52.636Z,77.25
2023-03-17T06:55:21.637Z,75.16
2023-03-17T06:57:51.536Z,75.97
2023-03-17T07:00:21.282Z,75.25
2023-03-17T07:02:51.363Z,74.97
